Time;durP1;ratioP1;P1;durP2;ratioP2;P2;SDS_P1;SDS_P2;PMS_P1;PMS_P2;Temp;Humidity;BMP_temperature;BMP_pressure;BME280_temperature;BME280_humidity;BME280_pressure;Samples;Min_cycle;Max_cycle;Signal;HPM_P1;HPM_P2
2024/02/26 00:01:44;;;;;;;4.18;2.55;;;23.10;45.20;;;;;;10356899;28;20520;-51
2024/02/26 00:06:47;;;;;;;3.10;2.63;;;23.00;45.40;;;;;;10366331;28;20049;-52
2024/02/26 00:11:49;;;;;;;4.65;2.53;;;23.10;45.20;;;;;;10364037;28;20073;-57
2024/02/26 00:16:51;;;;;;;2.83;2.35;;;23.00;45.20;;;;;;10360371;28;20052;-53
2024/02/26 00:21:55;;;;;;;2.97;2.10;;;23.10;45.10;;;;;;10360376;28;20053;-54
2024/02/26 00:26:57;;;;;;;2.60;2.20;;;23.00;45.00;;;;;;10366057;28;20411;-53
2024/02/26 00:31:58;;;;;;;3.22;2.15;;;22.90;45.00;;;;;;10366949;28;20056;-54
2024/02/26 00:37:02;;;;;;;4.38;2.40;;;22.90;45.10;;;;;;10363127;28;20065;-55
2024/02/26 00:42:04;;;;;;;3.45;2.38;;;22.80;45.00;;;;;;10363294;28;20299;-53
2024/02/26 00:47:06;;;;;;;2.20;2.00;;;22.80;45.00;;;;;;10364951;28;20043;-53
2024/02/26 00:52:09;;;;;;;2.80;2.05;;;22.90;44.80;;;;;;10364364;28;20069;-50
2024/02/26 00:57:11;;;;;;;2.50;1.95;;;22.80;44.90;;;;;;10356804;28;20047;-52
2024/02/26 01:02:13;;;;;;;2.13;1.90;;;22.80;44.80;;;;;;10359052;28;20468;-55
2024/02/26 01:07:16;;;;;;;2.47;2.00;;;22.80;44.60;;;;;;10357934;28;20526;-53
2024/02/26 01:12:17;;;;;;;1.95;1.75;;;22.90;44.50;;;;;;10354923;28;20403;-54
2024/02/26 01:17:19;;;;;;;3.30;1.92;;;22.80;44.20;;;;;;10355539;28;20068;-51
2024/02/26 01:22:22;;;;;;;2.50;1.83;;;22.70;44.50;;;;;;10359800;28;20046;-51
2024/02/26 01:27:26;;;;;;;5.57;1.98;;;22.70;44.60;;;;;;10360536;28;20518;-52
2024/02/26 01:32:28;;;;;;;2.65;2.05;;;22.70;44.20;;;;;;10355889;28;20439;-55
2024/02/26 01:37:31;;;;;;;2.47;1.90;;;22.70;44.20;;;;;;10355999;28;20049;-52
2024/02/26 01:42:32;;;;;;;2.28;1.95;;;22.70;44.30;;;;;;10363694;28;20054;-50
2024/02/26 01:47:34;;;;;;;2.97;2.08;;;22.70;44.20;;;;;;10361358;28;20050;-51
2024/02/26 01:52:37;;;;;;;2.35;1.90;;;22.50;44.20;;;;;;10360749;28;20050;-50
2024/02/26 01:57:38;;;;;;;2.20;1.70;;;22.70;44.00;;;;;;10353450;28;20053;-51
2024/02/26 02:02:41;;;;;;;2.17;1.80;;;22.50;44.10;;;;;;10360126;28;20045;-54
2024/02/26 02:07:44;;;;;;;2.58;1.90;;;22.60;44.00;;;;;;10358591;28;20041;-53
2024/02/26 02:12:46;;;;;;;2.10;1.70;;;22.60;43.90;;;;;;10360710;28;20415;-54
2024/02/26 02:17:47;;;;;;;1.52;1.42;;;22.60;43.80;;;;;;10354831;28;20076;-53
2024/02/26 02:22:50;;;;;;;1.77;1.60;;;22.40;44.00;;;;;;10351171;28;20050;-54
2024/02/26 02:27:52;;;;;;;2.45;1.63;;;22.40;44.00;;;;;;10347885;28;20137;-52
2024/02/26 02:32:54;;;;;;;1.70;1.60;;;22.40;43.80;;;;;;10352667;28;20046;-55
2024/02/26 02:37:58;;;;;;;2.33;1.73;;;22.40;43.90;;;;;;10354860;28;20050;-55
2024/02/26 02:42:59;;;;;;;1.73;1.38;;;22.30;43.90;;;;;;10352809;28;20049;-54
2024/02/26 02:48:01;;;;;;;2.42;1.80;;;22.20;44.00;;;;;;10351108;28;20053;-54
2024/02/26 02:53:04;;;;;;;1.75;1.38;;;22.20;44.10;;;;;;10358830;28;20056;-55
2024/02/26 02:58:06;;;;;;;2.15;1.52;;;22.10;44.00;;;;;;10358247;28;20089;-54
2024/02/26 03:03:07;;;;;;;1.85;1.50;;;22.10;43.90;;;;;;10355219;28;20060;-53
2024/02/26 03:08:11;;;;;;;2.05;1.40;;;21.70;45.10;;;;;;10350198;28;20053;-53
2024/02/26 03:13:12;;;;;;;1.75;1.50;;;21.90;44.90;;;;;;10351879;28;20046;-55
2024/02/26 03:18:14;;;;;;;1.80;1.52;;;21.80;45.00;;;;;;10349595;28;20420;-53
2024/02/26 03:23:17;;;;;;;1.92;1.70;;;21.90;45.10;;;;;;10353571;28;20431;-52
2024/02/26 03:28:18;;;;;;;1.40;1.30;;;21.90;45.00;;;;;;10348848;28;19925;-51
2024/02/26 03:33:20;;;;;;;1.70;1.55;;;21.70;45.40;;;;;;10353514;28;20054;-53
2024/02/26 03:38:23;;;;;;;1.58;1.48;;;21.90;45.00;;;;;;10348613;28;20050;-55
2024/02/26 03:43:25;;;;;;;1.70;1.58;;;22.10;44.70;;;;;;10344336;28;20081;-54
2024/02/26 03:48:26;;;;;;;1.58;1.45;;;22.20;44.50;;;;;;10344827;28;20080;-54
2024/02/26 03:53:29;;;;;;;1.70;1.60;;;22.20;44.60;;;;;;10347584;28;20046;-52
2024/02/26 03:58:31;;;;;;;1.40;1.30;;;21.90;44.90;;;;;;10349135;28;20044;-55
2024/02/26 04:03:32;;;;;;;2.08;1.20;;;21.70;45.60;;;;;;10353000;28;20042;-55
2024/02/26 04:08:35;;;;;;;2.33;1.50;;;21.80;46.10;;;;;;10358410;28;20042;-56
2024/02/26 04:13:37;;;;;;;1.40;1.30;;;22.70;45.90;;;;;;10352993;28;19921;-55
2024/02/26 04:18:39;;;;;;;1.30;1.13;;;23.30;44.30;;;;;;10348247;28;20053;-55
2024/02/26 04:23:42;;;;;;;1.20;1.10;;;23.60;43.90;;;;;;10344431;28;20048;-54
2024/02/26 04:28:44;;;;;;;1.55;1.27;;;23.60;43.60;;;;;;10349318;28;20049;-56
2024/02/26 04:33:45;;;;;;;1.30;1.20;;;23.50;43.90;;;;;;10354597;28;20104;-53
2024/02/26 04:38:48;;;;;;;1.30;1.20;;;23.70;43.70;;;;;;10352813;28;20044;-55
2024/02/26 04:43:50;;;;;;;1.20;1.10;;;23.80;43.50;;;;;;10351875;28;20053;-54
2024/02/26 04:48:51;;;;;;;1.17;0.90;;;23.80;43.50;;;;;;10358154;28;20053;-56
2024/02/26 04:53:54;;;;;;;1.20;1.10;;;23.90;43.50;;;;;;10353512;28;20053;-53
2024/02/26 04:58:56;;;;;;;1.20;1.00;;;24.10;43.10;;;;;;10351662;28;20512;-52
2024/02/26 05:03:57;;;;;;;1.55;1.10;;;24.30;42.80;;;;;;10356478;28;20736;-54
2024/02/26 05:09:00;;;;;;;1.20;1.10;;;24.20;42.90;;;;;;10357391;28;20073;-54
2024/02/26 05:14:02;;;;;;;1.35;1.13;;;24.20;42.80;;;;;;10359811;28;20091;-52
2024/02/26 05:19:03;;;;;;;1.30;1.20;;;24.00;43.20;;;;;;10365789;28;20042;-56
2024/02/26 05:24:07;;;;;;;0.93;0.90;;;24.20;42.90;;;;;;10362749;28;20049;-57
2024/02/26 05:29:09;;;;;;;1.13;0.95;;;24.20;42.80;;;;;;10356881;28;20097;-56
2024/02/26 05:34:10;;;;;;;1.20;1.10;;;24.20;42.80;;;;;;10357498;28;20140;-53
2024/02/26 05:39:13;;;;;;;1.08;0.98;;;24.20;42.80;;;;;;10360917;28;20045;-55
2024/02/26 05:44:15;;;;;;;5.43;2.40;;;24.00;42.90;;;;;;10360741;28;20091;-56
2024/02/26 05:49:17;;;;;;;4.53;2.40;;;23.80;43.50;;;;;;10356760;28;20128;-51
2024/02/26 05:54:20;;;;;;;7.05;4.82;;;23.80;43.80;;;;;;10357203;28;20136;-54
2024/02/26 05:59:22;;;;;;;8.88;6.50;;;23.90;44.20;;;;;;10357205;28;20054;-50
2024/02/26 06:04:23;;;;;;;12.50;9.68;;;23.70;45.40;;;;;;10354754;28;20081;-54
2024/02/26 06:09:26;;;;;;;14.90;10.68;;;23.60;45.60;;;;;;10353617;28;20056;-51
2024/02/26 06:14:28;;;;;;;19.15;12.43;;;23.50;45.50;;;;;;10357353;28;20048;-52
2024/02/26 06:19:29;;;;;;;26.70;15.07;;;23.50;45.90;;;;;;10357451;28;20140;-51
2024/02/26 06:24:32;;;;;;;24.15;13.65;;;23.90;45.90;;;;;;10358415;28;20060;-53
2024/02/26 06:29:34;;;;;;;28.42;14.75;;;24.10;45.40;;;;;;10363192;28;20049;-50
2024/02/26 06:34:35;;;;;;;31.75;17.05;;;23.80;45.60;;;;;;10360336;28;21957;-49
2024/02/26 06:39:38;;;;;;;28.98;16.00;;;23.60;46.30;;;;;;10353856;28;20057;-52
2024/02/26 06:44:40;;;;;;;26.83;17.10;;;23.50;46.80;;;;;;10360802;28;20056;-52
2024/02/26 06:49:42;;;;;;;29.05;17.52;;;23.60;46.60;;;;;;10356338;28;20054;-50
2024/02/26 06:54:45;;;;;;;29.30;19.65;;;23.60;46.60;;;;;;10357894;28;20050;-52
2024/02/26 06:59:47;;;;;;;32.55;19.90;;;23.60;46.70;;;;;;10350977;28;20046;-50
2024/02/26 07:04:48;;;;;;;30.05;17.55;;;23.50;45.80;;;;;;10357154;28;20057;-49
2024/02/26 07:09:51;;;;;;;28.95;17.45;;;23.50;43.80;;;;;;10352323;28;20064;-48
2024/02/26 07:14:57;;;;;;;30.63;19.42;;;23.90;43.60;;;;;;10353567;28;21020;-49
2024/02/26 07:19:59;;;;;;;30.38;20.58;;;24.00;43.50;;;;;;10357161;28;20400;-49
2024/02/26 07:25:03;;;;;;;35.80;21.10;;;23.90;43.80;;;;;;10357557;28;20403;-49
2024/02/26 07:30:06;;;;;;;29.95;20.95;;;23.90;43.80;;;;;;10355687;28;20128;-49
2024/02/26 07:35:08;;;;;;;29.95;20.73;;;23.90;43.80;;;;;;10357866;28;20455;-48
2024/02/26 07:40:12;;;;;;;27.00;20.45;;;23.80;43.90;;;;;;10358049;28;20546;-50
2024/02/26 07:45:15;;;;;;;24.25;18.98;;;23.80;43.70;;;;;;10355421;28;20050;-48
2024/02/26 07:50:17;;;;;;;26.73;19.60;;;23.60;44.10;;;;;;10355772;28;20479;-51
2024/02/26 07:55:20;;;;;;;25.45;19.27;;;23.70;43.90;;;;;;10356866;28;20046;-49
2024/02/26 08:00:22;;;;;;;26.33;19.13;;;23.40;44.40;;;;;;10355241;28;20050;-48
2024/02/26 08:05:23;;;;;;;23.50;18.27;;;23.40;44.40;;;;;;10353383;28;20164;-48
2024/02/26 08:10:27;;;;;;;22.25;17.90;;;23.50;44.30;;;;;;10354496;28;20467;-53
2024/02/26 08:15:29;;;;;;;25.17;18.63;;;23.50;44.20;;;;;;10353156;28;20435;-49
2024/02/26 08:20:30;;;;;;;24.48;18.50;;;23.60;44.30;;;;;;10350689;28;20049;-50
2024/02/26 08:25:33;;;;;;;24.50;19.10;;;23.70;44.20;;;;;;10361355;28;20057;-49
2024/02/26 08:30:35;;;;;;;25.70;20.50;;;23.80;44.40;;;;;;10369862;28;20068;-53
2024/02/26 08:35:36;;;;;;;24.00;19.60;;;23.80;44.50;;;;;;10363916;28;20057;-51
2024/02/26 08:40:39;;;;;;;24.92;19.30;;;23.70;44.90;;;;;;10365584;28;20050;-51
2024/02/26 08:45:41;;;;;;;24.83;19.48;;;23.80;44.80;;;;;;10363142;28;20050;-51
2024/02/26 08:50:42;;;;;;;21.40;18.45;;;24.00;44.70;;;;;;10362124;28;20054;-48
2024/02/26 08:55:45;;;;;;;21.73;16.23;;;23.90;44.70;;;;;;10368161;28;20060;-47
2024/02/26 09:00:47;;;;;;;18.58;14.82;;;24.00;44.00;;;;;;10358386;28;20064;-47
2024/02/26 09:05:49;;;;;;;25.50;16.25;;;24.00;43.90;;;;;;10365523;28;20056;-47
2024/02/26 09:10:52;;;;;;;22.98;15.82;;;23.80;44.60;;;;;;10361214;28;20044;-49
2024/02/26 09:15:54;;;;;;;20.35;14.65;;;23.60;45.70;;;;;;10361907;28;20046;-46
2024/02/26 09:20:56;;;;;;;23.48;14.93;;;23.70;45.90;;;;;;10355726;28;20052;-47
2024/02/26 09:25:59;;;;;;;20.95;14.52;;;23.70;46.40;;;;;;10356302;28;20170;-47
2024/02/26 09:31:00;;;;;;;22.13;15.30;;;23.70;46.80;;;;;;10352057;28;20053;-50
2024/02/26 09:36:02;;;;;;;21.02;14.55;;;23.80;46.60;;;;;;10355420;28;20070;-52
2024/02/26 09:41:05;;;;;;;24.17;13.52;;;24.00;46.60;;;;;;10318563;28;20629;-54
2024/02/26 09:46:07;;;;;;;25.15;13.88;;;23.90;47.30;;;;;;10321141;28;20046;-51
2024/02/26 09:51:08;;;;;;;18.38;12.35;;;24.10;46.80;;;;;;10359417;28;20053;-51
2024/02/26 09:56:12;;;;;;;19.60;13.30;;;23.90;47.70;;;;;;10359843;28;20177;-54
2024/02/26 10:01:15;;;;;;;17.75;13.05;;;24.10;47.60;;;;;;10357436;28;20050;-56
2024/02/26 10:06:17;;;;;;;21.83;12.90;;;24.00;48.00;;;;;;10364958;28;20052;-53
2024/02/26 10:11:20;;;;;;;26.92;13.18;;;23.90;48.60;;;;;;10362651;28;20052;-51
2024/02/26 10:16:21;;;;;;;19.45;12.57;;;24.10;48.10;;;;;;10359635;28;20056;-51
2024/02/26 10:21:23;;;;;;;17.17;12.45;;;24.10;48.30;;;;;;10357014;28;20132;-58
2024/02/26 10:26:26;;;;;;;23.13;13.57;;;24.20;48.40;;;;;;10360028;28;20076;-51
2024/02/26 10:31:28;;;;;;;16.90;12.32;;;24.00;48.90;;;;;;10356757;28;20072;-51
2024/02/26 10:36:29;;;;;;;15.63;12.02;;;23.80;49.40;;;;;;10355150;28;20058;-47
2024/02/26 10:41:33;;;;;;;16.75;12.30;;;24.10;49.00;;;;;;10354104;28;20070;-50
2024/02/26 10:46:35;;;;;;;21.90;11.75;;;24.20;49.30;;;;;;10352543;28;20056;-52
2024/02/26 10:51:36;;;;;;;16.38;9.70;;;24.10;49.40;;;;;;10352572;28;20137;-53
2024/02/26 10:56:39;;;;;;;14.60;9.20;;;24.30;47.30;;;;;;10352937;28;20491;-49
2024/02/26 11:01:43;;;;;;;15.10;7.40;;;24.30;46.60;;;;;;10354430;28;20054;-53
2024/02/26 11:06:45;;;;;;;12.00;7.10;;;24.50;45.30;;;;;;10360287;28;20599;-52
2024/02/26 11:11:48;;;;;;;10.55;7.68;;;24.40;45.70;;;;;;10354906;28;20158;-49
2024/02/26 11:16:50;;;;;;;10.80;7.60;;;24.60;45.70;;;;;;10360568;28;20046;-53
2024/02/26 11:21:52;;;;;;;11.32;7.75;;;24.10;46.90;;;;;;10360721;28;20524;-50
2024/02/26 11:26:58;;;;;;;9.82;7.32;;;24.40;46.80;;;;;;10351450;28;20411;-55
2024/02/26 11:32:00;;;;;;;9.93;7.07;;;24.30;47.40;;;;;;10353631;28;20057;-47
2024/02/26 11:37:10;;;;;;;10.93;7.07;;;24.40;47.60;;;;;;10358494;28;20039;-47
2024/02/26 11:42:15;;;;;;;9.75;7.10;;;24.10;48.60;;;;;;10354875;28;20527;-47
2024/02/26 11:47:19;;;;;;;10.70;6.63;;;24.60;47.60;;;;;;10355978;28;20052;-49
2024/02/26 11:52:21;;;;;;;7.45;6.20;;;24.50;47.70;;;;;;10355968;28;19956;-48
2024/02/26 11:57:28;;;;;;;9.00;6.22;;;24.50;46.50;;;;;;10358275;28;20053;-49
2024/02/26 12:02:40;;;;;;;6.32;5.32;;;24.50;45.60;;;;;;10362752;28;20693;-48
2024/02/26 12:07:44;;;;;;;5.40;4.90;;;24.50;44.90;;;;;;10355897;28;20061;-49
2024/02/26 12:12:47;;;;;;;5.57;4.85;;;24.40;44.20;;;;;;10361234;28;20058;-51
2024/02/26 12:17:49;;;;;;;5.25;4.63;;;24.30;44.00;;;;;;10361898;28;20050;-48
2024/02/26 12:22:52;;;;;;;5.82;5.10;;;24.30;44.30;;;;;;10365228;28;20042;-53
2024/02/26 12:27:55;;;;;;;6.30;4.70;;;24.10;44.30;;;;;;10364872;28;20499;-50
2024/02/26 12:32:58;;;;;;;5.50;4.30;;;24.20;44.00;;;;;;10367272;28;20057;-55
2024/02/26 12:38:00;;;;;;;7.28;4.32;;;24.10;43.90;;;;;;10367888;28;20137;-55
2024/02/26 12:43:03;;;;;;;7.38;4.20;;;24.20;43.90;;;;;;10362670;28;20049;-54
2024/02/26 12:48:06;;;;;;;4.72;4.10;;;24.10;43.50;;;;;;10360998;28;20050;-54
2024/02/26 12:53:08;;;;;;;4.28;3.83;;;24.10;43.70;;;;;;10359053;28;20133;-50
2024/02/26 12:58:11;;;;;;;3.65;3.35;;;24.10;43.80;;;;;;10359581;28;20052;-51
2024/02/26 13:03:12;;;;;;;4.57;3.63;;;24.10;43.60;;;;;;10362710;28;20126;-53
2024/02/26 13:08:18;;;;;;;3.75;3.33;;;24.00;43.80;;;;;;10357964;28;20049;-54
2024/02/26 13:13:21;;;;;;;3.88;3.22;;;24.00;43.70;;;;;;10362842;28;20050;-51
2024/02/26 13:18:23;;;;;;;3.70;3.40;;;23.90;43.70;;;;;;10359884;28;20038;-52
2024/02/26 13:23:24;;;;;;;4.03;3.40;;;24.00;43.50;;;;;;10358657;28;20048;-53
2024/02/26 13:28:28;;;;;;;8.68;3.40;;;23.90;43.60;;;;;;10355883;28;20068;-52
2024/02/26 13:33:30;;;;;;;3.88;3.38;;;23.90;43.80;;;;;;10357772;28;20076;-53
2024/02/26 13:38:31;;;;;;;4.28;3.60;;;23.80;43.50;;;;;;10358224;28;20484;-55
2024/02/26 13:43:34;;;;;;;3.92;3.10;;;23.70;41.90;;;;;;10363865;28;20528;-54
2024/02/26 13:48:36;;;;;;;3.70;3.38;;;23.70;42.20;;;;;;10362470;28;20522;-51
2024/02/26 13:53:37;;;;;;;3.63;3.17;;;23.60;42.20;;;;;;10362516;28;20049;-52
2024/02/26 13:58:40;;;;;;;3.58;2.88;;;23.70;42.50;;;;;;10354575;28;20060;-53
2024/02/26 14:03:42;;;;;;;2.83;2.60;;;23.60;42.60;;;;;;10357015;28;20045;-49
2024/02/26 14:08:43;;;;;;;3.20;2.58;;;23.60;42.80;;;;;;10351721;28;20531;-49
2024/02/26 14:13:47;;;;;;;3.13;2.55;;;23.70;42.70;;;;;;10349209;28;20049;-53
2024/02/26 14:18:49;;;;;;;3.63;2.60;;;23.70;42.80;;;;;;10357907;28;20050;-53
2024/02/26 14:23:50;;;;;;;2.50;2.30;;;23.70;42.80;;;;;;10355902;28;20573;-54
2024/02/26 14:28:53;;;;;;;3.40;2.10;;;23.80;42.40;;;;;;10356003;28;20050;-51
2024/02/26 14:33:55;;;;;;;3.15;2.10;;;23.80;41.80;;;;;;10359031;28;20050;-50
2024/02/26 14:38:56;;;;;;;3.67;2.35;;;23.90;41.40;;;;;;10356133;28;20050;-51
2024/02/26 14:43:59;;;;;;;2.80;1.98;;;23.80;39.60;;;;;;10353062;28;20170;-46
2024/02/26 14:49:01;;;;;;;3.45;1.80;;;23.70;40.30;;;;;;10351783;28;20146;-48
2024/02/26 14:54:03;;;;;;;3.97;1.65;;;23.70;40.60;;;;;;10354020;28;20112;-51
2024/02/26 14:59:06;;;;;;;1.85;1.40;;;24.00;41.00;;;;;;10361420;28;20048;-51
2024/02/26 15:04:07;;;;;;;4.45;1.90;;;24.00;41.20;;;;;;10356281;28;20043;-50
2024/02/26 15:09:09;;;;;;;4.90;1.63;;;24.10;41.70;;;;;;10357115;28;20042;-51
2024/02/26 15:14:12;;;;;;;4.70;1.80;;;24.00;42.80;;;;;;10350700;28;20078;-54
2024/02/26 15:19:13;;;;;;;3.53;1.98;;;24.00;42.50;;;;;;10357096;28;20042;-54
2024/02/26 15:24:16;;;;;;;4.90;1.90;;;24.00;43.10;;;;;;10351066;28;20105;-55
2024/02/26 15:29:19;;;;;;;3.30;2.35;;;24.00;43.40;;;;;;10354120;28;20050;-53
2024/02/26 15:34:21;;;;;;;6.10;2.60;;;24.10;43.50;;;;;;10322904;28;20046;-53
2024/02/26 15:39:23;;;;;;;2.40;2.00;;;24.10;43.70;;;;;;10316459;28;20066;-55
2024/02/26 15:44:26;;;;;;;4.97;2.03;;;24.20;43.90;;;;;;10313515;28;20050;-48
2024/02/26 15:49:28;;;;;;;7.80;2.35;;;23.90;44.70;;;;;;10335245;28;20046;-54
2024/02/26 15:54:29;;;;;;;4.03;2.03;;;24.00;44.70;;;;;;10355544;28;20056;-48
2024/02/26 15:59:33;;;;;;;8.57;1.90;;;24.10;44.80;;;;;;10348188;28;20056;-53
2024/02/26 16:04:35;;;;;;;4.60;1.90;;;24.30;44.80;;;;;;10353031;28;20045;-49
2024/02/26 16:09:36;;;;;;;3.80;1.90;;;24.30;45.30;;;;;;10354630;28;20077;-51
2024/02/26 16:14:47;;;;;;;7.60;1.83;;;24.20;45.40;;;;;;10359696;28;20057;-52
2024/02/26 16:19:48;;;;;;;;;;;24.10;46.30;;;;;;10357444;28;20084;-53
2024/02/26 16:24:50;;;;;;;5.93;1.63;;;24.40;45.30;;;;;;10353734;28;19921;-51
2024/02/26 16:29:53;;;;;;;5.10;1.70;;;24.40;45.30;;;;;;10351903;28;20043;-51
2024/02/26 16:34:55;;;;;;;6.93;1.60;;;24.40;45.20;;;;;;10347573;28;20042;-52
2024/02/26 16:39:58;;;;;;;5.88;1.90;;;24.40;45.20;;;;;;10347161;28;20562;-52
2024/02/26 16:45:03;;;;;;;4.97;1.77;;;24.20;46.00;;;;;;10353034;28;20050;-50
2024/02/26 16:50:06;;;;;;;9.38;2.15;;;24.00;46.00;;;;;;10360531;28;20407;-53
2024/02/26 16:55:08;;;;;;;6.18;2.17;;;24.20;46.30;;;;;;10359918;28;20418;-53
2024/02/26 17:00:15;;;;;;;6.63;2.03;;;24.10;46.70;;;;;;10361759;28;20510;-52
2024/02/26 17:05:16;;;;;;;3.33;1.75;;;24.00;46.60;;;;;;10356755;28;20089;-50
2024/02/26 17:10:18;;;;;;;5.22;1.88;;;23.90;46.60;;;;;;10362572;28;20128;-47
2024/02/26 17:15:21;;;;;;;4.15;1.92;;;23.80;46.60;;;;;;10362310;28;20052;-51
2024/02/26 17:20:22;;;;;;;3.38;1.77;;;24.00;45.60;;;;;;10358829;28;20555;-53
2024/02/26 17:25:24;;;;;;;4.05;1.75;;;23.90;45.10;;;;;;10361373;28;20476;-52
2024/02/26 17:30:27;;;;;;;4.13;1.67;;;23.90;44.80;;;;;;10360175;28;20879;-51
2024/02/26 17:35:31;;;;;;;4.03;1.58;;;24.00;44.40;;;;;;10368732;28;20050;-54
2024/02/26 17:40:32;;;;;;;6.05;1.45;;;23.80;45.10;;;;;;10353194;28;20045;-54
2024/02/26 17:45:35;;;;;;;2.92;1.45;;;23.60;45.70;;;;;;10351337;28;20046;-55
2024/02/26 17:50:38;;;;;;;5.15;1.23;;;23.70;45.70;;;;;;10351763;28;20045;-49
2024/02/26 17:55:39;;;;;;;10.85;1.73;;;24.00;45.40;;;;;;10350902;28;20500;-50
2024/02/26 18:00:42;;;;;;;2.20;1.20;;;24.00;45.80;;;;;;10347707;28;20054;-51
2024/02/26 18:05:44;;;;;;;5.57;1.35;;;24.20;45.60;;;;;;10350807;28;20045;-48
2024/02/26 18:10:46;;;;;;;2.67;1.10;;;23.80;46.70;;;;;;10346646;28;21255;-49
2024/02/26 18:15:48;;;;;;;3.08;1.10;;;23.80;47.30;;;;;;10354386;28;20510;-50
2024/02/26 18:20:50;;;;;;;2.28;1.20;;;24.30;46.20;;;;;;10344136;28;20050;-50
2024/02/26 18:25:52;;;;;;;2.42;1.25;;;24.20;46.30;;;;;;10351227;28;20050;-50
2024/02/26 18:30:57;;;;;;;3.80;1.10;;;24.50;45.50;;;;;;10361442;28;20072;-49
2024/02/26 18:35:59;;;;;;;1.35;1.10;;;24.70;45.10;;;;;;10359451;28;20457;-49
2024/02/26 18:41:00;;;;;;;3.97;1.20;;;24.70;45.30;;;;;;10354401;28;20046;-50
2024/02/26 18:46:03;;;;;;;2.38;1.05;;;24.20;46.70;;;;;;10357634;28;20046;-53
2024/02/26 18:51:05;;;;;;;3.50;1.10;;;24.70;45.10;;;;;;10355292;28;20419;-48
2024/02/26 18:56:07;;;;;;;1.95;1.00;;;24.90;44.40;;;;;;10352932;28;20172;-49
2024/02/26 19:01:11;;;;;;;3.00;1.25;;;24.90;44.20;;;;;;10355921;28;20061;-50
2024/02/26 19:06:12;;;;;;;5.63;1.17;;;24.40;45.40;;;;;;10345201;28;20405;-50
2024/02/26 19:11:15;;;;;;;1.50;1.13;;;24.10;46.50;;;;;;10346744;28;20128;-53
2024/02/26 19:16:18;;;;;;;3.00;0.90;;;24.20;46.00;;;;;;10353871;28;20447;-52
2024/02/26 19:21:20;;;;;;;3.53;0.93;;;24.40;45.20;;;;;;10351994;28;20034;-60
2024/02/26 19:26:21;;;;;;;1.30;1.02;;;24.30;45.10;;;;;;10351989;28;20053;-52
2024/02/26 19:31:27;;;;;;;3.88;1.00;;;24.10;45.60;;;;;;10356368;28;20046;-50
2024/02/26 19:36:29;;;;;;;9.98;1.20;;;23.90;46.30;;;;;;10353649;28;20563;-52
2024/02/26 19:41:30;;;;;;;5.35;1.20;;;23.90;46.40;;;;;;10357055;28;20889;-55
2024/02/26 19:46:34;;;;;;;3.92;1.25;;;23.90;46.90;;;;;;10356562;28;20046;-57
2024/02/26 19:51:37;;;;;;;4.53;1.00;;;23.90;47.20;;;;;;10310597;28;20116;-55
2024/02/26 19:56:38;;;;;;;2.53;1.00;;;24.00;47.00;;;;;;10358182;28;20046;-51
2024/02/26 20:01:42;;;;;;;2.38;1.20;;;24.10;46.70;;;;;;10356803;28;20046;-51
2024/02/26 20:06:43;;;;;;;2.70;1.20;;;23.90;46.60;;;;;;10356165;28;20061;-51
2024/02/26 20:11:45;;;;;;;2.83;0.90;;;24.10;46.00;;;;;;10354588;28;20052;-53
2024/02/26 20:16:48;;;;;;;3.30;1.20;;;24.10;45.70;;;;;;10351493;28;20125;-50
2024/02/26 20:21:50;;;;;;;3.10;1.05;;;24.20;45.40;;;;;;10357254;28;20041;-51
2024/02/26 20:26:51;;;;;;;1.52;0.88;;;23.90;45.80;;;;;;10358668;28;20574;-55
2024/02/26 20:31:54;;;;;;;5.57;1.10;;;23.90;45.70;;;;;;10358703;28;20427;-53
2024/02/26 20:36:56;;;;;;;2.85;0.95;;;23.80;46.00;;;;;;10359403;28;20050;-53
2024/02/26 20:41:57;;;;;;;6.28;1.00;;;23.70;46.00;;;;;;10364810;28;20050;-53
2024/02/26 20:47:00;;;;;;;3.83;0.98;;;23.80;46.20;;;;;;10357277;28;20130;-50
2024/02/26 20:52:02;;;;;;;3.53;1.30;;;23.80;46.00;;;;;;10364628;28;20052;-54
2024/02/26 20:57:04;;;;;;;3.90;1.00;;;23.60;46.20;;;;;;10360647;28;20042;-50
2024/02/26 21:02:08;;;;;;;1.45;0.90;;;23.50;46.10;;;;;;10357783;28;20041;-50
2024/02/26 21:07:09;;;;;;;2.58;1.10;;;23.60;46.00;;;;;;10355341;28;20057;-52
2024/02/26 21:12:12;;;;;;;2.05;0.98;;;23.60;46.00;;;;;;10362310;28;20053;-58
2024/02/26 21:17:15;;;;;;;4.50;1.00;;;23.50;45.80;;;;;;10362369;28;20061;-56
2024/02/26 21:22:16;;;;;;;6.13;1.00;;;23.50;45.80;;;;;;10361470;28;20045;-51
2024/02/26 21:27:18;;;;;;;3.28;1.10;;;23.40;46.10;;;;;;10358585;28;20495;-53
2024/02/26 21:32:21;;;;;;;3.45;1.08;;;23.30;46.40;;;;;;10356433;28;20041;-56
2024/02/26 21:37:22;;;;;;;3.95;1.17;;;23.50;45.90;;;;;;10350936;28;20060;-52
2024/02/26 21:42:24;;;;;;;3.70;0.90;;;23.30;46.10;;;;;;10347352;28;20086;-55
2024/02/26 21:47:28;;;;;;;1.25;0.98;;;23.30;46.10;;;;;;10356034;28;20411;-52
2024/02/26 21:52:29;;;;;;;2.55;1.10;;;23.20;46.00;;;;;;10356171;28;20058;-51
2024/02/26 21:57:31;;;;;;;1.50;0.88;;;23.20;46.20;;;;;;10358647;28;20050;-53
2024/02/26 22:02:34;;;;;;;1.98;1.02;;;22.90;46.30;;;;;;10361546;28;20485;-49
2024/02/26 22:07:35;;;;;;;1.55;0.90;;;23.00;46.20;;;;;;10359520;28;20046;-52
2024/02/26 22:12:37;;;;;;;2.08;1.00;;;23.10;46.30;;;;;;10361548;28;20037;-52
2024/02/26 22:17:41;;;;;;;1.48;0.88;;;23.30;45.80;;;;;;10359115;28;20423;-50
2024/02/26 22:22:42;;;;;;;1.88;0.80;;;23.30;45.80;;;;;;10356811;28;20045;-54
2024/02/26 22:27:45;;;;;;;1.70;0.80;;;23.30;45.70;;;;;;10359607;28;20048;-56
2024/02/26 22:32:48;;;;;;;3.60;0.80;;;23.30;45.50;;;;;;10357595;28;20050;-52
2024/02/26 22:37:50;;;;;;;1.15;0.80;;;23.00;45.90;;;;;;10357903;28;20041;-50
2024/02/26 22:42:55;;;;;;;1.42;0.70;;;22.90;46.00;;;;;;10356191;28;20038;-52
2024/02/26 22:47:58;;;;;;;1.80;1.02;;;23.00;46.00;;;;;;10356580;28;20493;-51
2024/02/26 22:52:59;;;;;;;2.35;0.85;;;23.10;45.70;;;;;;10348032;28;20050;-50
2024/02/26 22:58:01;;;;;;;1.00;0.80;;;23.30;45.60;;;;;;10358840;28;20542;-54
2024/02/26 23:03:05;;;;;;;0.93;0.75;;;23.20;45.60;;;;;;10353803;28;20046;-51
2024/02/26 23:08:07;;;;;;;1.48;0.90;;;23.00;45.60;;;;;;10355068;28;20050;-51
2024/02/26 23:13:08;;;;;;;1.00;0.88;;;22.80;45.90;;;;;;10356761;28;20128;-54
2024/02/26 23:18:11;;;;;;;1.00;0.90;;;22.80;45.90;;;;;;10358686;28;20041;-52
2024/02/26 23:23:13;;;;;;;1.42;1.00;;;23.10;45.40;;;;;;10361093;28;20053;-51
2024/02/26 23:28:15;;;;;;;1.17;0.60;;;23.10;45.50;;;;;;10360614;28;20050;-54
2024/02/26 23:33:18;;;;;;;1.75;0.90;;;23.20;45.30;;;;;;10352777;28;20045;-50
2024/02/26 23:38:19;;;;;;;1.23;0.80;;;23.10;45.30;;;;;;10357826;28;20048;-53
2024/02/26 23:43:21;;;;;;;0.90;0.60;;;22.90;45.40;;;;;;10357492;28;20056;-53
2024/02/26 23:48:24;;;;;;;0.75;0.70;;;22.80;45.80;;;;;;10355231;28;20052;-51
2024/02/26 23:53:25;;;;;;;1.45;0.85;;;22.90;45.50;;;;;;10362104;28;20041;-57
2024/02/26 23:58:27;;;;;;;1.23;0.70;;;22.90;45.60;;;;;;10370629;28;20158;-52
